createdAt,value
2019-05-19T01:53:04.155Z,44.94
2019-05-19T01:55:34.921Z,44.94
2019-05-19T01:58:06.461Z,78.94
2019-05-19T02:00:37.233Z,77.83
2019-05-19T02:03:08.108Z,75.88
2019-05-19T02:05:38.881Z,76.98
2019-05-19T02:08:09.675Z,76.97
2019-05-19T02:10:40.419Z,76.55
2019-05-19T02:13:11.236Z,76.39
2019-05-19T02:15:42.227Z,76.58
2019-05-19T02:18:13.417Z,76.30
2019-05-19T02:20:44.188Z,76.30
2019-05-19T02:23:14.962Z,77.07
2019-05-19T02:25:45.747Z,74.75
2019-05-19T02:28:16.500Z,75.95
2019-05-19T02:30:47.265Z,76.43
2019-05-19T02:33:18.140Z,76.96
2019-05-19T02:35:48.925Z,77.23
2019-05-19T02:38:19.712Z,76.68
2019-05-19T02:40:53.698Z,76.74
2019-05-19T02:43:24.787Z,77.02
2019-05-19T02:45:57.966Z,76.51
2019-05-19T02:48:29.593Z,76.94
2019-05-19T02:51:00.658Z,77.32
2019-05-19T02:53:32.062Z,77.35
2019-05-19T02:56:03.146Z,77.23
2019-05-19T02:58:34.338Z,76.69
2019-05-19T03:01:05.103Z,75.12
2019-05-19T03:03:35.895Z,75.54
2019-05-19T03:06:06.689Z,76.39
2019-05-19T03:08:37.454Z,77.05
2019-05-19T03:11:08.224Z,77.03
2019-05-19T03:13:39.010Z,77.82
2019-05-19T03:16:09.834Z,77.70
2019-05-19T03:18:40.645Z,77.32
2019-05-19T03:21:12.216Z,77.49
2019-05-19T03:23:43.219Z,77.81
2019-05-19T03:26:13.970Z,77.94
2019-05-19T03:28:44.739Z,77.65
2019-05-19T03:31:20.233Z,78.15
2019-05-19T03:33:52.920Z,77.84
2019-05-19T03:36:23.774Z,77.89
2019-05-19T03:38:54.586Z,78.47
2019-05-19T03:41:25.375Z,78.08
2019-05-19T03:43:56.164Z,77.28
2019-05-19T03:46:26.944Z,76.64
2019-05-19T03:48:57.788Z,77.15
2019-05-19T03:51:31.380Z,78.09
2019-05-19T03:54:01.245Z,78.20
2019-05-19T03:56:32.045Z,77.89
2019-05-19T03:59:02.946Z,78.20
2019-05-19T04:01:33.708Z,78.60
2019-05-19T04:04:04.504Z,78.00
2019-05-19T04:06:35.275Z,78.45
2019-05-19T04:09:06.047Z,77.79
2019-05-19T04:11:36.811Z,77.96
2019-05-19T04:14:07.587Z,77.72
2019-05-19T04:16:38.388Z,77.91
2019-05-19T04:19:09.163Z,77.07
2019-05-19T04:21:48.609Z,77.24
2019-05-19T04:24:12.621Z,77.12
2019-05-19T04:26:43.380Z,76.81
2019-05-19T04:29:14.162Z,76.33
2019-05-19T04:31:44.921Z,75.65
2019-05-19T04:34:15.728Z,75.43
2019-05-19T04:36:46.500Z,76.06
2019-05-19T04:39:17.346Z,75.71
2019-05-19T04:41:48.161Z,75.68
2019-05-19T04:44:18.935Z,75.66
2019-05-19T04:46:49.704Z,75.18
2019-05-19T04:49:20.484Z,74.67
2019-05-19T04:52:05.511Z,74.14
2019-05-19T04:54:23.948Z,73.61
2019-05-19T04:56:54.728Z,74.04
2019-05-19T04:59:25.502Z,73.73
2019-05-19T05:01:56.268Z,73.06
2019-05-19T05:04:29.530Z,74.14
2019-05-19T05:06:59.749Z,76.34
2019-05-19T05:09:30.550Z,73.75
2019-05-19T05:12:01.621Z,73.16
2019-05-19T05:14:32.416Z,73.50
2019-05-19T05:17:03.179Z,73.85
2019-05-19T05:19:33.983Z,73.84
2019-05-19T05:22:04.764Z,73.08
2019-05-19T05:24:35.541Z,71.73
2019-05-19T05:27:06.315Z,71.26
2019-05-19T05:29:39.901Z,70.83
2019-05-19T05:32:10.688Z,69.85
2019-05-19T05:34:41.469Z,68.95
2019-05-19T05:37:12.235Z,68.74
2019-05-19T05:39:43.004Z,66.63
2019-05-19T05:42:13.776Z,66.76
2019-05-19T05:44:44.551Z,65.86
2019-05-19T05:47:15.316Z,65.25
2019-05-19T05:49:46.128Z,64.95
2019-05-19T05:52:16.892Z,64.33
2019-05-19T05:54:47.684Z,64.77
2019-05-19T05:57:19.522Z,63.74
2019-05-19T05:59:50.528Z,61.48
2019-05-19T06:02:21.325Z,62.85
2019-05-19T06:04:52.136Z,62.85
2019-05-19T06:07:22.913Z,61.29
2019-05-19T06:09:53.687Z,61.75
2019-05-19T06:12:24.576Z,59.33
2019-05-19T06:14:55.350Z,61.15
2019-05-19T06:17:26.119Z,60.36
2019-05-19T06:19:56.948Z,60.11
2019-05-19T06:22:27.719Z,57.88
2019-05-19T06:24:59.326Z,59.20
2019-05-19T06:27:30.175Z,57.99
2019-05-19T06:30:00.959Z,56.39
2019-05-19T06:32:33.629Z,56.74
2019-05-19T06:35:04.457Z,57.56
2019-05-19T06:37:35.350Z,56.46
2019-05-19T06:40:06.876Z,53.10
2019-05-19T06:42:37.657Z,55.47
2019-05-19T06:45:08.740Z,54.06
2019-05-19T06:47:39.514Z,55.57
2019-05-19T06:50:10.848Z,54.38
2019-05-19T06:52:41.641Z,52.61
2019-05-19T06:55:12.630Z,52.80
2019-05-19T06:57:43.422Z,52.32
2019-05-19T07:00:16.589Z,51.72
2019-05-19T07:02:47.361Z,53.46
2019-05-19T07:05:18.121Z,53.44
2019-05-19T07:07:48.904Z,53.45
2019-05-19T07:10:19.663Z,52.86
2019-05-19T07:12:50.453Z,52.01
2019-05-19T07:15:21.229Z,50.12
2019-05-19T07:17:52.024Z,50.78
2019-05-19T07:20:22.825Z,51.75
2019-05-19T07:22:53.627Z,49.09
2019-05-19T07:25:24.744Z,49.79
2019-05-19T07:27:55.534Z,48.90
2019-05-19T07:30:26.293Z,49.45
2019-05-19T07:32:57.093Z,49.70
2019-05-19T07:35:27.855Z,49.48
2019-05-19T07:37:58.634Z,50.42
2019-05-19T07:40:29.419Z,50.69
2019-05-19T07:43:00.168Z,51.21
2019-05-19T07:45:30.944Z,51.21
2019-05-19T07:48:01.718Z,49.21
2019-05-19T07:50:32.486Z,47.92
2019-05-19T07:53:03.256Z,48.21
2019-05-19T07:55:34.029Z,47.49
2019-05-19T07:58:04.796Z,47.92
2019-05-19T08:00:35.574Z,47.61
2019-05-19T08:03:06.352Z,47.47
2019-05-19T08:05:37.141Z,49.09
2019-05-19T08:08:08.006Z,49.71
2019-05-19T08:10:38.785Z,48.04
2019-05-19T08:13:09.570Z,48.95
2019-05-19T08:15:40.370Z,47.27
2019-05-19T08:18:11.136Z,46.85
2019-05-19T08:20:41.928Z,47.58
2019-05-19T08:23:12.713Z,48.40
2019-05-19T08:25:43.482Z,46.02
2019-05-19T08:28:14.274Z,46.93
2019-05-19T08:30:45.047Z,45.85
2019-05-19T08:33:15.855Z,46.33
2019-05-19T08:35:46.698Z,45.88
2019-05-19T08:38:17.780Z,46.74
2019-05-19T08:40:48.624Z,45.68
2019-05-19T08:43:19.383Z,46.09
2019-05-19T08:45:50.520Z,44.02
2019-05-19T08:48:21.302Z,44.29
2019-05-19T08:50:52.090Z,44.55
2019-05-19T08:53:22.868Z,43.35
2019-05-19T08:55:53.648Z,43.58
2019-05-19T08:58:24.489Z,41.40
2019-05-19T09:00:55.271Z,42.73
2019-05-19T09:03:26.071Z,42.16
2019-05-19T09:05:56.842Z,41.24
2019-05-19T09:08:27.635Z,43.31
2019-05-19T09:10:58.534Z,41.98
2019-05-19T09:13:29.307Z,44.21
2019-05-19T09:16:00.105Z,43.21
2019-05-19T09:18:30.881Z,44.01
2019-05-19T09:21:01.663Z,42.71
2019-05-19T09:23:32.468Z,41.99
2019-05-19T09:26:03.339Z,40.44
2019-05-19T09:28:34.123Z,41.84
2019-05-19T09:31:04.920Z,43.46
2019-05-19T09:33:35.706Z,44.35
2019-05-19T09:36:06.523Z,42.35
2019-05-19T09:38:37.297Z,41.71
2019-05-19T09:41:08.102Z,40.54
2019-05-19T09:43:38.881Z,40.92
2019-05-19T09:46:09.655Z,40.18
2019-05-19T09:48:40.466Z,39.05
2019-05-19T09:51:11.245Z,37.07
2019-05-19T09:53:42.041Z,39.02
2019-05-19T09:56:12.817Z,37.51
2019-05-19T09:58:43.618Z,38.19
2019-05-19T10:02:06.572Z,39.64
2019-05-19T10:04:37.391Z,39.64
2019-05-19T10:07:08.645Z,39.93
2019-05-19T10:09:55.567Z,38.77
2019-05-19T10:12:26.476Z,37.52
2019-05-19T10:14:58.541Z,40.29
2019-05-19T10:17:29.342Z,37.12
2019-05-19T10:20:00.148Z,36.94
2019-05-19T10:22:31.107Z,36.99
2019-05-19T10:25:21.054Z,37.97
2019-05-19T10:27:37.621Z,37.42
2019-05-19T10:30:08.921Z,38.80
2019-05-19T10:32:39.721Z,34.81
2019-05-19T10:35:10.680Z,34.86
2019-05-19T10:37:41.479Z,35.36
2019-05-19T10:40:12.684Z,34.77
2019-05-19T10:42:43.879Z,34.77
2019-05-19T10:45:14.964Z,34.11
2019-05-19T10:47:45.749Z,31.21
2019-05-19T10:50:16.512Z,32.42
2019-05-19T10:52:47.318Z,33.97
2019-05-19T10:55:18.098Z,35.66
2019-05-19T10:57:48.895Z,34.93
2019-05-19T11:00:19.871Z,34.99
2019-05-19T11:02:50.769Z,34.92
2019-05-19T11:05:21.546Z,32.87
2019-05-19T11:07:52.335Z,31.98
2019-05-19T11:10:26.148Z,33.37
2019-05-19T11:48:44.585Z,32.19
2019-05-19T11:51:15.394Z,32.19
2019-05-19T11:53:46.213Z,31.43
2019-05-19T11:56:18.301Z,31.44
2019-05-19T11:58:49.913Z,100.00
2019-05-19T12:01:20.762Z,31.44
2019-05-19T12:09:40.098Z,100.00
2019-05-19T12:12:44.959Z,32.66
2019-05-19T12:16:23.003Z,32.66
2019-05-19T12:19:06.749Z,32.66
2019-05-19T12:50:25.683Z,32.66
2019-05-19T12:59:21.120Z,32.66
2019-05-19T13:01:51.984Z,32.66
2019-05-19T13:05:05.294Z,26.87
2019-05-19T14:11:55.993Z,26.87
2019-05-19T16:10:29.626Z,26.87
2019-05-19T16:26:03.381Z,26.87
2019-05-19T16:28:34.160Z,26.87
2019-05-19T16:31:04.939Z,49.32
2019-05-19T16:33:35.730Z,51.97
2019-05-19T16:36:07.989Z,53.66
2019-05-19T16:38:39.007Z,55.43
2019-05-19T16:41:10.061Z,54.44
2019-05-19T16:43:40.856Z,56.60
2019-05-19T16:46:11.641Z,54.41
2019-05-19T16:48:42.519Z,55.50
2019-05-19T16:51:13.257Z,55.96
2019-05-19T16:53:45.950Z,54.62
2019-05-19T16:56:16.728Z,54.73
2019-05-19T16:58:47.602Z,51.06
2019-05-19T17:01:20.088Z,56.07
2019-05-19T17:03:50.980Z,54.97
2019-05-19T17:06:22.759Z,53.42
2019-05-19T17:09:27.025Z,100.00
2019-05-19T17:12:36.790Z,52.84
2019-05-19T17:15:07.765Z,52.84
2019-05-19T17:17:38.544Z,52.54
2019-05-19T17:20:09.625Z,52.04
2019-05-19T17:22:40.434Z,51.48
2019-05-19T17:25:11.918Z,52.65
2019-05-19T17:27:42.747Z,53.32
2019-05-19T17:30:14.220Z,52.80
2019-05-19T17:32:45.017Z,51.32
2019-05-19T17:35:16.037Z,51.46
2019-05-19T17:37:46.824Z,51.61
2019-05-19T17:40:17.787Z,52.94
2019-05-19T17:42:48.965Z,52.63
2019-05-19T17:45:20.052Z,52.02
2019-05-19T17:48:09.048Z,52.83
